sensor_id;sensor_type;location;lat;lon;timestamp;P1;durP1;ratioP1;P2;durP2;ratioP2
75843;SDS011;64492;51.270;3.912;2022-12-01T00:00:11;7.45;;;4.80;;
75843;SDS011;64492;51.270;3.912;2022-12-01T00:02:40;6.70;;;4.88;;
75843;SDS011;64492;51.270;3.912;2022-12-01T00:05:06;7.47;;;4.55;;
75843;SDS011;64492;51.270;3.912;2022-12-01T00:07:33;7.57;;;4.60;;
75843;SDS011;64492;51.270;3.912;2022-12-01T00:10:00;7.50;;;4.72;;
75843;SDS011;64492;51.270;3.912;2022-12-01T00:12:44;7.97;;;4.95;;
75843;SDS011;64492;51.270;3.912;2022-12-01T00:15:10;6.95;;;4.25;;
75843;SDS011;64492;51.270;3.912;2022-12-01T00:17:37;6.28;;;4.30;;
75843;SDS011;64492;51.270;3.912;2022-12-01T00:20:09;7.00;;;4.55;;
75843;SDS011;64492;51.270;3.912;2022-12-01T00:22:36;7.82;;;4.53;;
75843;SDS011;64492;51.270;3.912;2022-12-01T00:25:03;8.27;;;5.20;;
75843;SDS011;64492;51.270;3.912;2022-12-01T00:27:30;6.93;;;4.40;;
75843;SDS011;64492;51.270;3.912;2022-12-01T00:29:56;7.35;;;4.82;;
75843;SDS011;64492;51.270;3.912;2022-12-01T00:32:23;6.70;;;4.30;;
75843;SDS011;64492;51.270;3.912;2022-12-01T00:34:49;7.25;;;4.45;;
75843;SDS011;64492;51.270;3.912;2022-12-01T00:37:17;7.07;;;4.47;;
75843;SDS011;64492;51.270;3.912;2022-12-01T00:39:44;7.53;;;4.70;;
75843;SDS011;64492;51.270;3.912;2022-12-01T00:42:11;7.00;;;4.90;;
75843;SDS011;64492;51.270;3.912;2022-12-01T00:44:37;7.30;;;4.57;;
75843;SDS011;64492;51.270;3.912;2022-12-01T00:47:04;7.53;;;4.57;;
75843;SDS011;64492;51.270;3.912;2022-12-01T00:49:30;7.82;;;4.45;;
75843;SDS011;64492;51.270;3.912;2022-12-01T00:51:57;7.32;;;4.85;;
75843;SDS011;64492;51.270;3.912;2022-12-01T00:54:25;6.80;;;4.70;;
75843;SDS011;64492;51.270;3.912;2022-12-01T00:56:55;8.05;;;4.70;;
75843;SDS011;64492;51.270;3.912;2022-12-01T00:59:22;7.65;;;4.82;;
75843;SDS011;64492;51.270;3.912;2022-12-01T01:01:48;7.47;;;4.68;;
75843;SDS011;64492;51.270;3.912;2022-12-01T01:04:15;8.50;;;5.35;;
75843;SDS011;64492;51.270;3.912;2022-12-01T01:06:41;7.80;;;4.95;;
75843;SDS011;64492;51.270;3.912;2022-12-01T01:09:08;6.95;;;4.72;;
75843;SDS011;64492;51.270;3.912;2022-12-01T01:11:36;8.30;;;5.07;;
75843;SDS011;64492;51.270;3.912;2022-12-01T01:14:03;7.28;;;4.43;;
75843;SDS011;64492;51.270;3.912;2022-12-01T01:16:30;7.25;;;4.85;;
75843;SDS011;64492;51.270;3.912;2022-12-01T01:18:57;7.50;;;4.75;;
75843;SDS011;64492;51.270;3.912;2022-12-01T01:21:24;7.13;;;4.43;;
75843;SDS011;64492;51.270;3.912;2022-12-01T01:23:51;7.07;;;4.45;;
75843;SDS011;64492;51.270;3.912;2022-12-01T01:26:19;8.82;;;5.25;;
75843;SDS011;64492;51.270;3.912;2022-12-01T01:31:15;7.93;;;4.47;;
75843;SDS011;64492;51.270;3.912;2022-12-01T01:33:44;7.30;;;4.55;;
75843;SDS011;64492;51.270;3.912;2022-12-01T01:36:11;8.02;;;4.90;;
75843;SDS011;64492;51.270;3.912;2022-12-01T01:38:38;6.63;;;4.25;;
75843;SDS011;64492;51.270;3.912;2022-12-01T01:41:05;7.95;;;4.47;;
75843;SDS011;64492;51.270;3.912;2022-12-01T01:43:37;8.07;;;4.53;;
75843;SDS011;64492;51.270;3.912;2022-12-01T01:46:07;7.72;;;5.00;;
75843;SDS011;64492;51.270;3.912;2022-12-01T01:48:35;8.05;;;5.25;;
75843;SDS011;64492;51.270;3.912;2022-12-01T01:51:03;8.30;;;4.97;;
75843;SDS011;64492;51.270;3.912;2022-12-01T01:53:31;7.65;;;4.55;;
75843;SDS011;64492;51.270;3.912;2022-12-01T01:55:57;7.13;;;5.05;;
75843;SDS011;64492;51.270;3.912;2022-12-01T01:58:24;7.68;;;4.93;;
75843;SDS011;64492;51.270;3.912;2022-12-01T02:00:51;7.93;;;5.03;;
75843;SDS011;64492;51.270;3.912;2022-12-01T02:03:19;8.25;;;5.07;;
75843;SDS011;64492;51.270;3.912;2022-12-01T02:05:47;6.90;;;4.57;;
75843;SDS011;64492;51.270;3.912;2022-12-01T02:08:13;8.75;;;5.07;;
75843;SDS011;64492;51.270;3.912;2022-12-01T02:10:45;8.10;;;4.95;;
75843;SDS011;64492;51.270;3.912;2022-12-01T02:13:20;6.07;;;4.47;;
75843;SDS011;64492;51.270;3.912;2022-12-01T02:15:53;8.13;;;5.10;;
75843;SDS011;64492;51.270;3.912;2022-12-01T02:18:24;8.40;;;4.82;;
75843;SDS011;64492;51.270;3.912;2022-12-01T02:21:01;9.10;;;5.25;;
75843;SDS011;64492;51.270;3.912;2022-12-01T02:26:18;8.63;;;5.15;;
75843;SDS011;64492;51.270;3.912;2022-12-01T02:29:07;8.88;;;4.97;;
75843;SDS011;64492;51.270;3.912;2022-12-01T02:31:43;8.15;;;5.15;;
75843;SDS011;64492;51.270;3.912;2022-12-01T02:34:12;7.35;;;4.55;;
75843;SDS011;64492;51.270;3.912;2022-12-01T02:36:42;7.15;;;4.82;;
75843;SDS011;64492;51.270;3.912;2022-12-01T02:39:14;8.48;;;5.32;;
75843;SDS011;64492;51.270;3.912;2022-12-01T02:41:45;7.53;;;4.70;;
75843;SDS011;64492;51.270;3.912;2022-12-01T02:44:15;7.28;;;5.03;;
75843;SDS011;64492;51.270;3.912;2022-12-01T02:46:46;9.10;;;5.28;;
75843;SDS011;64492;51.270;3.912;2022-12-01T02:49:16;7.18;;;4.55;;
75843;SDS011;64492;51.270;3.912;2022-12-01T02:51:44;7.28;;;4.85;;
75843;SDS011;64492;51.270;3.912;2022-12-01T02:54:11;6.68;;;4.32;;
75843;SDS011;64492;51.270;3.912;2022-12-01T02:56:39;8.95;;;4.90;;
75843;SDS011;64492;51.270;3.912;2022-12-01T02:59:07;8.27;;;4.60;;
75843;SDS011;64492;51.270;3.912;2022-12-01T03:01:38;8.73;;;4.95;;
75843;SDS011;64492;51.270;3.912;2022-12-01T03:04:29;8.45;;;5.70;;
75843;SDS011;64492;51.270;3.912;2022-12-01T03:07:06;8.43;;;5.45;;
75843;SDS011;64492;51.270;3.912;2022-12-01T03:09:40;8.20;;;5.15;;
75843;SDS011;64492;51.270;3.912;2022-12-01T03:12:13;8.38;;;5.22;;
75843;SDS011;64492;51.270;3.912;2022-12-01T03:14:43;9.48;;;5.30;;
75843;SDS011;64492;51.270;3.912;2022-12-01T03:17:15;8.07;;;5.50;;
75843;SDS011;64492;51.270;3.912;2022-12-01T03:19:44;7.90;;;5.10;;
75843;SDS011;64492;51.270;3.912;2022-12-01T03:22:13;8.57;;;5.10;;
75843;SDS011;64492;51.270;3.912;2022-12-01T03:24:42;8.57;;;5.38;;
75843;SDS011;64492;51.270;3.912;2022-12-01T03:27:11;8.63;;;5.20;;
75843;SDS011;64492;51.270;3.912;2022-12-01T03:29:39;8.38;;;5.15;;
75843;SDS011;64492;51.270;3.912;2022-12-01T03:32:08;8.75;;;5.47;;
75843;SDS011;64492;51.270;3.912;2022-12-01T03:34:42;8.43;;;5.45;;
75843;SDS011;64492;51.270;3.912;2022-12-01T03:37:11;8.95;;;5.65;;
75843;SDS011;64492;51.270;3.912;2022-12-01T03:39:42;8.10;;;5.15;;
75843;SDS011;64492;51.270;3.912;2022-12-01T03:42:12;8.52;;;5.43;;
75843;SDS011;64492;51.270;3.912;2022-12-01T03:44:50;10.05;;;5.65;;
75843;SDS011;64492;51.270;3.912;2022-12-01T03:47:19;9.25;;;6.03;;
75843;SDS011;64492;51.270;3.912;2022-12-01T03:49:49;9.32;;;5.53;;
75843;SDS011;64492;51.270;3.912;2022-12-01T03:52:18;8.30;;;5.10;;
75843;SDS011;64492;51.270;3.912;2022-12-01T03:54:51;8.27;;;5.20;;
75843;SDS011;64492;51.270;3.912;2022-12-01T03:57:23;8.90;;;5.47;;
75843;SDS011;64492;51.270;3.912;2022-12-01T03:59:51;8.07;;;5.43;;
75843;SDS011;64492;51.270;3.912;2022-12-01T04:02:18;8.70;;;5.28;;
75843;SDS011;64492;51.270;3.912;2022-12-01T04:04:45;9.80;;;5.15;;
75843;SDS011;64492;51.270;3.912;2022-12-01T04:07:13;9.18;;;5.50;;
75843;SDS011;64492;51.270;3.912;2022-12-01T04:09:39;8.30;;;5.18;;
75843;SDS011;64492;51.270;3.912;2022-12-01T04:12:06;8.57;;;5.82;;
75843;SDS011;64492;51.270;3.912;2022-12-01T04:14:52;10.15;;;6.07;;
75843;SDS011;64492;51.270;3.912;2022-12-01T04:17:19;8.70;;;5.72;;
75843;SDS011;64492;51.270;3.912;2022-12-01T04:19:45;7.70;;;5.07;;
75843;SDS011;64492;51.270;3.912;2022-12-01T04:22:13;8.55;;;6.00;;
75843;SDS011;64492;51.270;3.912;2022-12-01T04:24:39;8.77;;;5.47;;
75843;SDS011;64492;51.270;3.912;2022-12-01T04:27:06;9.93;;;5.97;;
75843;SDS011;64492;51.270;3.912;2022-12-01T04:29:33;8.80;;;6.22;;
75843;SDS011;64492;51.270;3.912;2022-12-01T04:32:00;8.98;;;5.32;;
75843;SDS011;64492;51.270;3.912;2022-12-01T04:34:26;8.95;;;5.90;;
75843;SDS011;64492;51.270;3.912;2022-12-01T04:36:52;9.10;;;5.90;;
75843;SDS011;64492;51.270;3.912;2022-12-01T04:39:20;10.05;;;6.20;;
75843;SDS011;64492;51.270;3.912;2022-12-01T04:41:47;9.77;;;6.28;;
75843;SDS011;64492;51.270;3.912;2022-12-01T04:44:14;10.05;;;6.30;;
75843;SDS011;64492;51.270;3.912;2022-12-01T04:46:40;10.35;;;6.10;;
75843;SDS011;64492;51.270;3.912;2022-12-01T04:49:07;9.68;;;5.82;;
75843;SDS011;64492;51.270;3.912;2022-12-01T04:51:33;11.90;;;6.40;;
75843;SDS011;64492;51.270;3.912;2022-12-01T04:54:00;8.05;;;5.63;;
75843;SDS011;64492;51.270;3.912;2022-12-01T04:56:28;10.10;;;6.05;;
75843;SDS011;64492;51.270;3.912;2022-12-01T04:58:55;8.35;;;5.18;;
75843;SDS011;64492;51.270;3.912;2022-12-01T05:01:23;8.55;;;5.57;;
75843;SDS011;64492;51.270;3.912;2022-12-01T05:03:49;8.63;;;5.70;;
75843;SDS011;64492;51.270;3.912;2022-12-01T05:06:17;8.18;;;5.63;;
75843;SDS011;64492;51.270;3.912;2022-12-01T05:08:45;10.35;;;6.03;;
75843;SDS011;64492;51.270;3.912;2022-12-01T05:11:12;9.18;;;5.28;;
75843;SDS011;64492;51.270;3.912;2022-12-01T05:13:42;9.88;;;6.25;;
75843;SDS011;64492;51.270;3.912;2022-12-01T05:16:10;10.30;;;6.03;;
75843;SDS011;64492;51.270;3.912;2022-12-01T05:18:38;8.02;;;5.80;;
75843;SDS011;64492;51.270;3.912;2022-12-01T05:21:06;9.02;;;5.90;;
75843;SDS011;64492;51.270;3.912;2022-12-01T05:23:33;7.90;;;5.35;;
75843;SDS011;64492;51.270;3.912;2022-12-01T05:26:01;9.15;;;6.07;;
75843;SDS011;64492;51.270;3.912;2022-12-01T05:28:28;9.52;;;5.50;;
75843;SDS011;64492;51.270;3.912;2022-12-01T05:30:56;9.05;;;5.68;;
75843;SDS011;64492;51.270;3.912;2022-12-01T05:33:23;9.63;;;5.95;;
75843;SDS011;64492;51.270;3.912;2022-12-01T05:35:51;9.88;;;5.93;;
75843;SDS011;64492;51.270;3.912;2022-12-01T05:38:18;8.95;;;5.82;;
75843;SDS011;64492;51.270;3.912;2022-12-01T05:40:48;9.15;;;6.00;;
75843;SDS011;64492;51.270;3.912;2022-12-01T05:43:15;9.10;;;6.10;;
75843;SDS011;64492;51.270;3.912;2022-12-01T05:45:42;9.30;;;5.45;;
75843;SDS011;64492;51.270;3.912;2022-12-01T05:48:09;9.40;;;6.18;;
75843;SDS011;64492;51.270;3.912;2022-12-01T05:50:36;9.25;;;6.50;;
75843;SDS011;64492;51.270;3.912;2022-12-01T05:53:03;9.10;;;6.47;;
75843;SDS011;64492;51.270;3.912;2022-12-01T05:55:31;9.23;;;6.00;;
75843;SDS011;64492;51.270;3.912;2022-12-01T05:57:58;9.02;;;5.55;;
75843;SDS011;64492;51.270;3.912;2022-12-01T06:00:24;9.88;;;5.70;;
75843;SDS011;64492;51.270;3.912;2022-12-01T06:02:51;9.77;;;5.97;;
75843;SDS011;64492;51.270;3.912;2022-12-01T06:05:19;9.75;;;5.88;;
75843;SDS011;64492;51.270;3.912;2022-12-01T06:07:45;9.48;;;6.18;;
75843;SDS011;64492;51.270;3.912;2022-12-01T06:10:12;9.23;;;6.13;;
75843;SDS011;64492;51.270;3.912;2022-12-01T06:12:39;7.78;;;5.60;;
75843;SDS011;64492;51.270;3.912;2022-12-01T06:15:06;9.68;;;6.22;;
75843;SDS011;64492;51.270;3.912;2022-12-01T06:17:33;9.30;;;5.82;;
75843;SDS011;64492;51.270;3.912;2022-12-01T06:20:00;10.73;;;5.85;;
75843;SDS011;64492;51.270;3.912;2022-12-01T06:22:28;8.30;;;5.28;;
75843;SDS011;64492;51.270;3.912;2022-12-01T06:24:54;18.00;;;8.77;;
75843;SDS011;64492;51.270;3.912;2022-12-01T06:27:21;45.05;;;16.20;;
75843;SDS011;64492;51.270;3.912;2022-12-01T06:29:48;33.55;;;13.05;;
75843;SDS011;64492;51.270;3.912;2022-12-01T06:32:14;28.13;;;10.45;;
75843;SDS011;64492;51.270;3.912;2022-12-01T06:34:41;31.65;;;12.00;;
75843;SDS011;64492;51.270;3.912;2022-12-01T06:37:08;30.02;;;11.35;;
75843;SDS011;64492;51.270;3.912;2022-12-01T06:39:36;25.95;;;10.25;;
75843;SDS011;64492;51.270;3.912;2022-12-01T06:42:03;25.45;;;9.55;;
75843;SDS011;64492;51.270;3.912;2022-12-01T06:44:30;18.80;;;8.50;;
75843;SDS011;64492;51.270;3.912;2022-12-01T06:46:57;21.40;;;9.20;;
75843;SDS011;64492;51.270;3.912;2022-12-01T06:49:23;18.00;;;9.00;;
75843;SDS011;64492;51.270;3.912;2022-12-01T06:51:50;20.40;;;9.20;;
75843;SDS011;64492;51.270;3.912;2022-12-01T06:54:16;19.83;;;8.30;;
75843;SDS011;64492;51.270;3.912;2022-12-01T06:56:44;17.60;;;8.07;;
75843;SDS011;64492;51.270;3.912;2022-12-01T06:59:10;16.52;;;7.97;;
75843;SDS011;64492;51.270;3.912;2022-12-01T07:01:37;16.10;;;8.35;;
75843;SDS011;64492;51.270;3.912;2022-12-01T07:04:03;13.93;;;7.22;;
75843;SDS011;64492;51.270;3.912;2022-12-01T07:06:30;14.82;;;7.28;;
75843;SDS011;64492;51.270;3.912;2022-12-01T07:08:57;17.73;;;7.93;;
75843;SDS011;64492;51.270;3.912;2022-12-01T07:11:24;15.85;;;7.97;;
75843;SDS011;64492;51.270;3.912;2022-12-01T07:13:54;14.38;;;8.05;;
75843;SDS011;64492;51.270;3.912;2022-12-01T07:16:21;17.67;;;7.50;;
75843;SDS011;64492;51.270;3.912;2022-12-01T07:18:47;16.55;;;7.88;;
75843;SDS011;64492;51.270;3.912;2022-12-01T07:21:14;13.45;;;6.90;;
75843;SDS011;64492;51.270;3.912;2022-12-01T07:23:42;18.20;;;8.02;;
75843;SDS011;64492;51.270;3.912;2022-12-01T07:26:09;16.38;;;7.35;;
75843;SDS011;64492;51.270;3.912;2022-12-01T07:28:36;16.10;;;8.13;;
75843;SDS011;64492;51.270;3.912;2022-12-01T07:31:05;14.20;;;7.22;;
75843;SDS011;64492;51.270;3.912;2022-12-01T07:33:33;15.48;;;7.13;;
75843;SDS011;64492;51.270;3.912;2022-12-01T07:35:59;14.85;;;7.60;;
75843;SDS011;64492;51.270;3.912;2022-12-01T07:38:26;16.55;;;7.70;;
75843;SDS011;64492;51.270;3.912;2022-12-01T07:40:53;13.07;;;7.68;;
75843;SDS011;64492;51.270;3.912;2022-12-01T07:43:20;15.90;;;7.90;;
75843;SDS011;64492;51.270;3.912;2022-12-01T07:45:46;14.77;;;7.07;;
75843;SDS011;64492;51.270;3.912;2022-12-01T07:48:14;16.80;;;7.78;;
75843;SDS011;64492;51.270;3.912;2022-12-01T07:50:41;13.65;;;7.95;;
75843;SDS011;64492;51.270;3.912;2022-12-01T07:53:07;14.18;;;8.00;;
75843;SDS011;64492;51.270;3.912;2022-12-01T07:55:34;13.15;;;7.20;;
75843;SDS011;64492;51.270;3.912;2022-12-01T07:58:00;14.23;;;6.97;;
75843;SDS011;64492;51.270;3.912;2022-12-01T08:00:27;14.35;;;7.00;;
75843;SDS011;64492;51.270;3.912;2022-12-01T08:02:53;13.13;;;7.45;;
75843;SDS011;64492;51.270;3.912;2022-12-01T08:05:21;12.98;;;6.97;;
75843;SDS011;64492;51.270;3.912;2022-12-01T08:07:48;12.18;;;6.72;;
75843;SDS011;64492;51.270;3.912;2022-12-01T08:10:14;13.50;;;6.80;;
75843;SDS011;64492;51.270;3.912;2022-12-01T08:12:41;13.85;;;6.78;;
75843;SDS011;64492;51.270;3.912;2022-12-01T08:15:07;15.20;;;7.05;;
75843;SDS011;64492;51.270;3.912;2022-12-01T08:17:35;11.80;;;6.40;;
75843;SDS011;64492;51.270;3.912;2022-12-01T08:20:01;16.15;;;7.13;;
75843;SDS011;64492;51.270;3.912;2022-12-01T08:22:29;14.70;;;7.38;;
75843;SDS011;64492;51.270;3.912;2022-12-01T08:24:56;15.02;;;6.75;;
75843;SDS011;64492;51.270;3.912;2022-12-01T08:27:22;12.88;;;6.65;;
75843;SDS011;64492;51.270;3.912;2022-12-01T08:29:49;13.35;;;6.82;;
75843;SDS011;64492;51.270;3.912;2022-12-01T08:32:15;12.48;;;6.72;;
75843;SDS011;64492;51.270;3.912;2022-12-01T08:34:42;13.00;;;7.40;;
75843;SDS011;64492;51.270;3.912;2022-12-01T08:37:08;11.82;;;6.45;;
75843;SDS011;64492;51.270;3.912;2022-12-01T08:39:36;12.18;;;6.90;;
75843;SDS011;64492;51.270;3.912;2022-12-01T08:42:03;14.10;;;6.72;;
75843;SDS011;64492;51.270;3.912;2022-12-01T08:44:29;11.80;;;6.65;;
75843;SDS011;64492;51.270;3.912;2022-12-01T08:46:56;12.10;;;6.57;;
75843;SDS011;64492;51.270;3.912;2022-12-01T08:49:22;12.80;;;7.25;;
75843;SDS011;64492;51.270;3.912;2022-12-01T08:51:49;13.75;;;6.75;;
75843;SDS011;64492;51.270;3.912;2022-12-01T08:54:15;12.55;;;6.75;;
75843;SDS011;64492;51.270;3.912;2022-12-01T08:56:43;11.68;;;6.60;;
75843;SDS011;64492;51.270;3.912;2022-12-01T08:59:10;11.05;;;6.30;;
75843;SDS011;64492;51.270;3.912;2022-12-01T09:01:37;12.40;;;7.03;;
75843;SDS011;64492;51.270;3.912;2022-12-01T09:04:15;11.73;;;6.55;;
75843;SDS011;64492;51.270;3.912;2022-12-01T09:06:43;12.13;;;6.38;;
75843;SDS011;64492;51.270;3.912;2022-12-01T09:09:11;13.52;;;7.40;;
75843;SDS011;64492;51.270;3.912;2022-12-01T09:11:39;12.60;;;6.90;;
75843;SDS011;64492;51.270;3.912;2022-12-01T09:14:09;11.75;;;7.10;;
75843;SDS011;64492;51.270;3.912;2022-12-01T09:16:35;11.40;;;6.38;;
75843;SDS011;64492;51.270;3.912;2022-12-01T09:19:02;14.23;;;7.25;;
75843;SDS011;64492;51.270;3.912;2022-12-01T09:21:29;12.73;;;6.97;;
75843;SDS011;64492;51.270;3.912;2022-12-01T09:23:57;11.70;;;6.53;;
75843;SDS011;64492;51.270;3.912;2022-12-01T09:26:24;12.73;;;7.00;;
75843;SDS011;64492;51.270;3.912;2022-12-01T09:28:52;11.38;;;6.70;;
75843;SDS011;64492;51.270;3.912;2022-12-01T09:33:52;10.07;;;6.20;;
75843;SDS011;64492;51.270;3.912;2022-12-01T09:36:19;10.20;;;6.43;;
75843;SDS011;64492;51.270;3.912;2022-12-01T09:38:46;11.38;;;6.18;;
75843;SDS011;64492;51.270;3.912;2022-12-01T09:41:14;11.18;;;6.63;;
75843;SDS011;64492;51.270;3.912;2022-12-01T09:43:44;11.48;;;6.30;;
75843;SDS011;64492;51.270;3.912;2022-12-01T09:46:12;12.70;;;6.32;;
75843;SDS011;64492;51.270;3.912;2022-12-01T09:48:44;10.57;;;6.07;;
75843;SDS011;64492;51.270;3.912;2022-12-01T09:51:12;10.95;;;6.50;;
75843;SDS011;64492;51.270;3.912;2022-12-01T09:53:39;10.50;;;6.13;;
75843;SDS011;64492;51.270;3.912;2022-12-01T09:56:09;10.90;;;6.97;;
75843;SDS011;64492;51.270;3.912;2022-12-01T09:58:43;11.23;;;6.43;;
75843;SDS011;64492;51.270;3.912;2022-12-01T10:01:10;10.63;;;6.45;;
75843;SDS011;64492;51.270;3.912;2022-12-01T10:03:43;10.02;;;6.40;;
75843;SDS011;64492;51.270;3.912;2022-12-01T10:06:13;10.93;;;6.57;;
75843;SDS011;64492;51.270;3.912;2022-12-01T10:08:46;10.57;;;6.22;;
75843;SDS011;64492;51.270;3.912;2022-12-01T10:11:30;12.02;;;7.05;;
75843;SDS011;64492;51.270;3.912;2022-12-01T10:13:58;12.55;;;6.63;;
75843;SDS011;64492;51.270;3.912;2022-12-01T10:16:26;10.82;;;6.10;;
75843;SDS011;64492;51.270;3.912;2022-12-01T10:18:57;12.05;;;7.22;;
75843;SDS011;64492;51.270;3.912;2022-12-01T10:21:31;10.63;;;6.00;;
75843;SDS011;64492;51.270;3.912;2022-12-01T10:24:16;11.63;;;6.32;;
75843;SDS011;64492;51.270;3.912;2022-12-01T10:26:53;12.95;;;7.18;;
75843;SDS011;64492;51.270;3.912;2022-12-01T10:29:26;9.85;;;6.30;;
75843;SDS011;64492;51.270;3.912;2022-12-01T10:31:54;10.63;;;6.05;;
75843;SDS011;64492;51.270;3.912;2022-12-01T10:34:24;11.23;;;6.60;;
75843;SDS011;64492;51.270;3.912;2022-12-01T10:36:51;9.63;;;6.18;;
75843;SDS011;64492;51.270;3.912;2022-12-01T10:39:28;10.88;;;6.28;;
75843;SDS011;64492;51.270;3.912;2022-12-01T10:41:59;9.73;;;6.28;;
75843;SDS011;64492;51.270;3.912;2022-12-01T10:44:28;12.38;;;6.18;;
75843;SDS011;64492;51.270;3.912;2022-12-01T10:46:55;10.65;;;6.07;;
75843;SDS011;64492;51.270;3.912;2022-12-01T10:49:34;9.77;;;5.70;;
75843;SDS011;64492;51.270;3.912;2022-12-01T10:52:01;11.15;;;5.75;;
75843;SDS011;64492;51.270;3.912;2022-12-01T10:54:30;10.75;;;6.57;;
75843;SDS011;64492;51.270;3.912;2022-12-01T10:56:58;9.82;;;5.93;;
75843;SDS011;64492;51.270;3.912;2022-12-01T10:59:26;10.55;;;6.55;;
75843;SDS011;64492;51.270;3.912;2022-12-01T11:01:57;10.13;;;5.93;;
75843;SDS011;64492;51.270;3.912;2022-12-01T11:04:28;11.23;;;6.50;;
75843;SDS011;64492;51.270;3.912;2022-12-01T11:06:59;10.95;;;6.45;;
75843;SDS011;64492;51.270;3.912;2022-12-01T11:09:26;11.05;;;6.38;;
75843;SDS011;64492;51.270;3.912;2022-12-01T11:11:54;11.02;;;6.45;;
75843;SDS011;64492;51.270;3.912;2022-12-01T11:14:21;10.60;;;6.15;;
75843;SDS011;64492;51.270;3.912;2022-12-01T11:16:49;9.68;;;6.10;;
75843;SDS011;64492;51.270;3.912;2022-12-01T11:19:19;11.63;;;6.40;;
75843;SDS011;64492;51.270;3.912;2022-12-01T11:21:48;10.68;;;6.30;;
75843;SDS011;64492;51.270;3.912;2022-12-01T11:24:27;10.15;;;7.00;;
75843;SDS011;64492;51.270;3.912;2022-12-01T11:26:56;10.93;;;7.00;;
75843;SDS011;64492;51.270;3.912;2022-12-01T11:29:28;10.10;;;6.20;;
75843;SDS011;64492;51.270;3.912;2022-12-01T11:31:56;10.68;;;6.68;;
75843;SDS011;64492;51.270;3.912;2022-12-01T11:34:24;9.27;;;6.30;;
75843;SDS011;64492;51.270;3.912;2022-12-01T11:36:54;11.85;;;5.95;;
75843;SDS011;64492;51.270;3.912;2022-12-01T11:39:24;9.55;;;5.80;;
75843;SDS011;64492;51.270;3.912;2022-12-01T11:41:53;10.23;;;6.18;;
75843;SDS011;64492;51.270;3.912;2022-12-01T11:44:20;10.98;;;6.53;;
75843;SDS011;64492;51.270;3.912;2022-12-01T11:46:47;10.18;;;6.25;;
75843;SDS011;64492;51.270;3.912;2022-12-01T11:49:14;11.35;;;6.43;;
75843;SDS011;64492;51.270;3.912;2022-12-01T11:54:13;9.50;;;6.20;;
75843;SDS011;64492;51.270;3.912;2022-12-01T11:56:42;11.15;;;6.30;;
75843;SDS011;64492;51.270;3.912;2022-12-01T11:59:10;9.93;;;5.90;;
75843;SDS011;64492;51.270;3.912;2022-12-01T12:01:42;10.00;;;6.60;;
75843;SDS011;64492;51.270;3.912;2022-12-01T12:04:27;10.43;;;5.82;;
75843;SDS011;64492;51.270;3.912;2022-12-01T12:07:12;9.20;;;6.38;;
75843;SDS011;64492;51.270;3.912;2022-12-01T12:09:50;11.30;;;6.55;;
75843;SDS011;64492;51.270;3.912;2022-12-01T12:15:04;11.20;;;6.15;;
75843;SDS011;64492;51.270;3.912;2022-12-01T12:17:40;9.50;;;6.47;;
75843;SDS011;64492;51.270;3.912;2022-12-01T12:20:23;10.55;;;6.25;;
75843;SDS011;64492;51.270;3.912;2022-12-01T12:22:57;10.93;;;6.80;;
75843;SDS011;64492;51.270;3.912;2022-12-01T12:25:46;10.40;;;6.10;;
75843;SDS011;64492;51.270;3.912;2022-12-01T12:28:24;10.55;;;6.43;;
75843;SDS011;64492;51.270;3.912;2022-12-01T12:30:56;10.15;;;6.40;;
75843;SDS011;64492;51.270;3.912;2022-12-01T12:33:41;9.82;;;6.10;;
75843;SDS011;64492;51.270;3.912;2022-12-01T12:36:17;10.55;;;6.35;;
75843;SDS011;64492;51.270;3.912;2022-12-01T12:38:54;10.90;;;6.53;;
75843;SDS011;64492;51.270;3.912;2022-12-01T12:41:32;10.05;;;5.75;;
75843;SDS011;64492;51.270;3.912;2022-12-01T12:44:05;10.85;;;6.55;;
75843;SDS011;64492;51.270;3.912;2022-12-01T12:46:37;10.40;;;6.35;;
75843;SDS011;64492;51.270;3.912;2022-12-01T12:49:16;10.68;;;6.18;;
75843;SDS011;64492;51.270;3.912;2022-12-01T12:51:49;10.63;;;5.80;;
75843;SDS011;64492;51.270;3.912;2022-12-01T12:54:20;11.07;;;6.30;;
75843;SDS011;64492;51.270;3.912;2022-12-01T12:56:53;9.85;;;5.45;;
75843;SDS011;64492;51.270;3.912;2022-12-01T12:59:22;10.68;;;6.72;;
75843;SDS011;64492;51.270;3.912;2022-12-01T13:01:54;9.40;;;6.20;;
75843;SDS011;64492;51.270;3.912;2022-12-01T13:04:25;10.07;;;6.10;;
75843;SDS011;64492;51.270;3.912;2022-12-01T13:06:57;8.93;;;5.30;;
75843;SDS011;64492;51.270;3.912;2022-12-01T13:09:27;10.88;;;5.85;;
75843;SDS011;64492;51.270;3.912;2022-12-01T13:12:00;10.43;;;6.53;;
75843;SDS011;64492;51.270;3.912;2022-12-01T13:14:30;9.57;;;6.15;;
75843;SDS011;64492;51.270;3.912;2022-12-01T13:17:11;12.23;;;6.57;;
75843;SDS011;64492;51.270;3.912;2022-12-01T13:19:41;9.07;;;5.68;;
75843;SDS011;64492;51.270;3.912;2022-12-01T13:22:08;9.13;;;5.75;;
75843;SDS011;64492;51.270;3.912;2022-12-01T13:24:36;9.80;;;6.40;;
75843;SDS011;64492;51.270;3.912;2022-12-01T13:27:05;8.70;;;5.45;;
75843;SDS011;64492;51.270;3.912;2022-12-01T13:29:43;9.45;;;6.25;;
75843;SDS011;64492;51.270;3.912;2022-12-01T13:32:24;9.55;;;5.82;;
75843;SDS011;64492;51.270;3.912;2022-12-01T13:37:24;9.02;;;5.95;;
75843;SDS011;64492;51.270;3.912;2022-12-01T13:39:51;10.45;;;6.30;;
75843;SDS011;64492;51.270;3.912;2022-12-01T13:42:21;8.05;;;5.68;;
75843;SDS011;64492;51.270;3.912;2022-12-01T13:44:50;10.32;;;5.93;;
75843;SDS011;64492;51.270;3.912;2022-12-01T13:47:32;9.30;;;5.75;;
75843;SDS011;64492;51.270;3.912;2022-12-01T13:53:11;9.18;;;5.72;;
75843;SDS011;64492;51.270;3.912;2022-12-01T13:58:23;11.05;;;6.25;;
75843;SDS011;64492;51.270;3.912;2022-12-01T14:00:51;9.75;;;5.68;;
75843;SDS011;64492;51.270;3.912;2022-12-01T14:03:31;9.98;;;6.00;;
75843;SDS011;64492;51.270;3.912;2022-12-01T14:06:08;11.43;;;6.50;;
75843;SDS011;64492;51.270;3.912;2022-12-01T14:08:45;10.10;;;6.55;;
75843;SDS011;64492;51.270;3.912;2022-12-01T14:11:17;9.75;;;5.70;;
75843;SDS011;64492;51.270;3.912;2022-12-01T14:13:48;10.00;;;6.10;;
75843;SDS011;64492;51.270;3.912;2022-12-01T14:16:17;7.97;;;5.50;;
75843;SDS011;64492;51.270;3.912;2022-12-01T14:18:47;9.57;;;6.13;;
75843;SDS011;64492;51.270;3.912;2022-12-01T14:21:15;9.68;;;6.30;;
75843;SDS011;64492;51.270;3.912;2022-12-01T14:23:57;9.70;;;5.45;;
75843;SDS011;64492;51.270;3.912;2022-12-01T14:26:25;9.10;;;5.82;;
75843;SDS011;64492;51.270;3.912;2022-12-01T14:34:50;9.90;;;6.07;;
75843;SDS011;64492;51.270;3.912;2022-12-01T14:37:18;8.38;;;5.13;;
75843;SDS011;64492;51.270;3.912;2022-12-01T14:39:49;10.23;;;6.38;;
75843;SDS011;64492;51.270;3.912;2022-12-01T14:42:22;8.95;;;6.15;;
75843;SDS011;64492;51.270;3.912;2022-12-01T14:45:13;10.88;;;5.93;;
75843;SDS011;64492;51.270;3.912;2022-12-01T14:47:43;8.68;;;5.72;;
75843;SDS011;64492;51.270;3.912;2022-12-01T14:50:12;9.15;;;5.50;;
75843;SDS011;64492;51.270;3.912;2022-12-01T14:52:42;10.98;;;5.93;;
75843;SDS011;64492;51.270;3.912;2022-12-01T14:55:12;10.27;;;5.78;;
75843;SDS011;64492;51.270;3.912;2022-12-01T14:57:41;9.80;;;6.18;;
75843;SDS011;64492;51.270;3.912;2022-12-01T15:00:14;10.43;;;6.80;;
75843;SDS011;64492;51.270;3.912;2022-12-01T15:02:42;9.70;;;5.53;;
75843;SDS011;64492;51.270;3.912;2022-12-01T15:05:12;9.73;;;6.53;;
75843;SDS011;64492;51.270;3.912;2022-12-01T15:07:41;8.90;;;6.15;;
75843;SDS011;64492;51.270;3.912;2022-12-01T15:10:14;12.98;;;6.60;;
75843;SDS011;64492;51.270;3.912;2022-12-01T15:12:42;9.25;;;6.13;;
75843;SDS011;64492;51.270;3.912;2022-12-01T15:15:14;9.32;;;6.05;;
75843;SDS011;64492;51.270;3.912;2022-12-01T15:17:42;9.50;;;5.63;;
75843;SDS011;64492;51.270;3.912;2022-12-01T15:22:54;9.43;;;5.93;;